createdAt,value
2018-08-11T00:02:22.468Z,57
2018-08-11T00:12:21.708Z,56.9
2018-08-11T00:22:20.948Z,56.9
2018-08-11T00:32:20.193Z,56.8
2018-08-11T00:42:19.430Z,56.7
2018-08-11T00:52:18.669Z,56.6
2018-08-11T01:02:17.963Z,56.6
2018-08-11T01:12:17.150Z,56.5
2018-08-11T01:22:16.391Z,56.4
2018-08-11T01:32:15.630Z,56.4
2018-08-11T01:42:14.871Z,56.4
2018-08-11T01:52:14.111Z,56.3
2018-08-11T02:02:13.355Z,56.3
2018-08-11T02:12:12.590Z,56.2
2018-08-11T02:22:11.832Z,56.1
2018-08-11T02:32:11.068Z,56.1
2018-08-11T02:42:10.307Z,56
2018-08-11T02:52:09.548Z,55.9
2018-08-11T03:02:08.786Z,54.8
2018-08-11T03:12:08.027Z,54.6
2018-08-11T03:22:07.266Z,54.5
2018-08-11T03:32:06.512Z,54.4
2018-08-11T03:42:05.746Z,54.4
2018-08-11T03:52:04.986Z,54.3
2018-08-11T04:02:04.232Z,54.1
2018-08-11T04:12:03.465Z,54
2018-08-11T04:22:02.703Z,53.1
2018-08-11T04:32:01.944Z,52.9
2018-08-11T04:42:01.289Z,52.8
2018-08-11T04:52:00.425Z,49.5
2018-08-11T05:01:59.666Z,47.3
2018-08-11T05:11:58.908Z,46
2018-08-11T05:21:58.148Z,45.8
2018-08-11T05:31:57.389Z,44.5
2018-08-11T05:41:56.634Z,42.3
2018-08-11T05:51:55.876Z,42.6
2018-08-11T06:01:55.118Z,42.8
2018-08-11T06:11:54.363Z,42.8
2018-08-11T06:21:53.604Z,42.1
2018-08-11T06:31:52.896Z,42.9
2018-08-11T06:41:52.093Z,43.4
2018-08-11T06:51:51.329Z,44.4
2018-08-11T07:01:50.576Z,45.2
2018-08-11T07:11:49.818Z,43.8
2018-08-11T07:21:49.060Z,44.1
2018-08-11T07:31:48.301Z,45.1
2018-08-11T07:41:47.541Z,45.9
2018-08-11T07:51:46.784Z,46.1
2018-08-11T08:01:46.029Z,46.5
2018-08-11T08:11:45.288Z,45.9
2018-08-11T08:21:44.520Z,43.8
2018-08-11T08:31:43.770Z,44.9
2018-08-11T08:41:43.027Z,46.1
2018-08-11T08:51:42.253Z,47.2
2018-08-11T09:01:41.502Z,48.2
2018-08-11T09:11:40.737Z,49.1
2018-08-11T09:21:39.977Z,49.9
2018-08-11T09:31:39.222Z,51
2018-08-11T09:41:38.468Z,51.9
2018-08-11T09:51:37.713Z,52.8
2018-08-11T10:01:36.947Z,53.7
2018-08-11T10:11:36.242Z,54.4
2018-08-11T10:21:35.434Z,54.9
2018-08-11T10:31:34.676Z,55.5
2018-08-11T10:41:33.925Z,56.1
2018-08-11T10:51:33.161Z,56.8
2018-08-11T11:01:32.402Z,57.5
2018-08-11T11:11:31.650Z,58.2
2018-08-11T11:21:30.937Z,58.9
2018-08-11T11:31:30.130Z,59.6
2018-08-11T11:41:29.369Z,60.3
2018-08-11T11:51:28.610Z,60.9
2018-08-11T12:01:27.853Z,61.6
2018-08-11T12:11:27.100Z,62.3
2018-08-11T12:21:26.335Z,63
2018-08-11T12:31:25.574Z,63.7
2018-08-11T12:41:24.817Z,64.3
2018-08-11T12:51:24.110Z,65
2018-08-11T13:01:23.349Z,65.6
2018-08-11T13:11:22.596Z,66.3
2018-08-11T13:21:21.783Z,66.9
2018-08-11T13:31:21.022Z,67.5
2018-08-11T13:41:20.264Z,68.1
2018-08-11T13:51:19.505Z,68.6
2018-08-11T14:01:18.790Z,69.2
2018-08-11T14:11:17.990Z,69.7
2018-08-11T14:21:17.232Z,70.2
2018-08-11T14:31:16.469Z,70.6
2018-08-11T14:41:15.719Z,71.1
2018-08-11T14:51:14.951Z,71.5
2018-08-11T15:01:14.193Z,71.8
2018-08-11T15:11:13.437Z,72.1
2018-08-11T15:21:12.681Z,72.4
2018-08-11T15:31:11.916Z,72.6
2018-08-11T15:41:11.157Z,72.8
2018-08-11T15:51:10.403Z,72.9
2018-08-11T16:01:09.645Z,73
2018-08-11T16:11:08.881Z,73.1
2018-08-11T16:21:08.125Z,73.1
2018-08-11T16:31:07.365Z,73.1
2018-08-11T16:41:06.622Z,72.8
2018-08-11T16:51:05.850Z,72.6
2018-08-11T17:01:05.098Z,72.1
2018-08-11T17:11:04.341Z,70.9
2018-08-11T17:21:03.591Z,70.1
2018-08-11T17:31:02.851Z,69.6
2018-08-11T17:41:02.071Z,69.1
2018-08-11T17:51:01.312Z,68.6
2018-08-11T18:01:00.604Z,67.4
2018-08-11T18:10:59.801Z,67.1
2018-08-11T18:20:59.046Z,66.2
2018-08-11T18:30:58.290Z,65.4
2018-08-11T18:40:57.530Z,64.3
2018-08-11T18:50:56.779Z,55.3
2018-08-11T19:00:56.067Z,54.6
2018-08-11T19:10:55.265Z,53.6
2018-08-11T19:20:54.514Z,53.4
2018-08-11T19:30:53.806Z,47.4
2018-08-11T19:40:53.005Z,47.8
2018-08-11T19:50:52.238Z,44.5
2018-08-11T20:00:51.488Z,37.3
2018-08-11T20:10:50.732Z,37.9
2018-08-11T20:20:50.070Z,37.9
2018-08-11T20:30:49.214Z,33.1
2018-08-11T20:40:48.460Z,34.1
2018-08-11T20:50:47.702Z,34.5
2018-08-11T21:00:46.943Z,34.9
2018-08-11T21:10:46.197Z,35.3
2018-08-11T21:20:45.424Z,35.6
2018-08-11T21:30:44.667Z,35.8
2018-08-11T21:40:43.910Z,36.1
2018-08-11T21:50:43.197Z,36.3
2018-08-11T22:00:42.388Z,36.4
2018-08-11T22:10:41.631Z,36.7
2018-08-11T22:20:40.872Z,36.9
2018-08-11T22:30:40.116Z,37
2018-08-11T22:40:39.353Z,37.2
2018-08-11T22:50:38.595Z,37.3
2018-08-11T23:00:37.836Z,37.4
2018-08-11T23:10:37.074Z,37.6
2018-08-11T23:20:36.319Z,37.7
2018-08-11T23:30:35.558Z,37.8
2018-08-11T23:40:34.796Z,37.9
2018-08-11T23:50:34.036Z,38.1
